createdAt,value
2023-03-02T00:00:44.588Z,76.26
2023-03-02T00:02:59.593Z,76.50
2023-03-02T00:05:15.686Z,76.37
2023-03-02T00:07:33.126Z,76.22
2023-03-02T00:09:46.719Z,76.06
2023-03-02T00:12:00.174Z,75.75
2023-03-02T00:14:13.525Z,75.94
2023-03-02T00:16:26.424Z,75.74
2023-03-02T00:18:39.998Z,76.00
2023-03-02T00:20:53.069Z,76.15
2023-03-02T00:23:06.395Z,75.66
2023-03-02T00:25:20.803Z,75.80
2023-03-02T00:27:34.396Z,75.90
2023-03-02T00:29:48.061Z,75.74
2023-03-02T00:32:01.155Z,75.89
2023-03-02T00:34:14.283Z,75.40
2023-03-02T00:36:28.812Z,75.74
2023-03-02T00:38:42.314Z,75.45
2023-03-02T00:40:56.605Z,75.70
2023-03-02T00:43:10.002Z,75.70
2023-03-02T00:45:23.940Z,75.20
2023-03-02T00:47:40.196Z,74.88
2023-03-02T00:49:53.942Z,74.90
2023-03-02T00:52:07.681Z,74.94
2023-03-02T00:54:20.932Z,74.66
2023-03-02T00:56:34.648Z,74.54
2023-03-02T00:58:48.702Z,74.62
2023-03-02T01:01:02.301Z,74.49
2023-03-02T01:03:15.793Z,74.41
2023-03-02T01:05:30.157Z,74.38
2023-03-02T01:07:44.968Z,74.42
2023-03-02T01:09:58.001Z,74.38
2023-03-02T01:12:13.458Z,74.12
2023-03-02T01:14:26.523Z,74.35
2023-03-02T01:16:41.183Z,74.23
2023-03-02T01:18:54.158Z,74.24
2023-03-02T01:21:14.177Z,74.42
2023-03-02T01:23:28.022Z,74.25
2023-03-02T01:25:42.208Z,74.18
2023-03-02T01:27:55.611Z,74.30
2023-03-02T01:30:10.552Z,74.11
2023-03-02T01:32:23.617Z,74.15
2023-03-02T01:34:37.413Z,74.32
2023-03-02T01:36:51.419Z,74.30
2023-03-02T01:39:05.329Z,74.43
2023-03-02T01:41:19.297Z,74.37
2023-03-02T01:43:33.123Z,74.41
2023-03-02T01:45:58.816Z,74.38
2023-03-02T01:48:38.906Z,74.26
2023-03-02T01:50:51.948Z,74.39
2023-03-02T01:53:05.659Z,74.40
2023-03-02T01:55:26.161Z,74.47
2023-03-02T01:57:47.027Z,74.47
2023-03-02T02:00:09.466Z,74.42
2023-03-02T02:02:26.616Z,74.58
2023-03-02T02:04:43.445Z,74.53
2023-03-02T02:06:59.987Z,74.57
2023-03-02T02:09:16.607Z,74.55
2023-03-02T02:11:29.858Z,74.60
2023-03-02T02:13:43.741Z,74.67
2023-03-02T02:15:58.059Z,74.95
2023-03-02T02:18:11.358Z,74.73
2023-03-02T02:20:32.028Z,74.65
2023-03-02T02:22:58.905Z,74.67
2023-03-02T02:25:22.254Z,74.50
2023-03-02T02:27:36.618Z,74.63
2023-03-02T02:29:51.837Z,74.66
2023-03-02T02:32:11.499Z,74.79
2023-03-02T02:34:28.618Z,74.96
2023-03-02T02:36:46.817Z,74.84
2023-03-02T02:39:05.439Z,74.97
2023-03-02T02:41:22.878Z,75.28
2023-03-02T02:43:37.303Z,75.43
2023-03-02T02:45:53.526Z,75.70
2023-03-02T02:48:07.629Z,75.73
2023-03-02T02:50:26.069Z,75.77
2023-03-02T02:52:39.488Z,75.95
2023-03-02T02:54:54.234Z,76.08
2023-03-02T02:57:10.026Z,76.26
2023-03-02T02:59:26.941Z,76.43
2023-03-02T03:01:40.795Z,76.62
2023-03-02T03:03:58.252Z,76.56
2023-03-02T03:06:18.137Z,76.80
2023-03-02T03:08:57.609Z,76.97
2023-03-02T03:11:26.452Z,77.12
2023-03-02T03:13:41.047Z,77.31
2023-03-02T03:15:54.087Z,77.39
2023-03-02T03:18:08.054Z,77.68
2023-03-02T03:20:23.475Z,77.71
2023-03-02T03:22:37.142Z,77.86
2023-03-02T03:24:51.005Z,78.13
2023-03-02T03:27:06.632Z,78.33
2023-03-02T03:29:25.392Z,78.61
2023-03-02T03:31:39.747Z,78.87
2023-03-02T03:33:53.111Z,79.09
2023-03-02T03:36:06.790Z,79.14
2023-03-02T03:38:21.240Z,79.33
2023-03-02T03:40:35.451Z,79.43
2023-03-02T03:42:48.672Z,79.54
2023-03-02T03:45:02.344Z,79.69
2023-03-02T03:47:19.099Z,79.81
2023-03-02T03:49:33.274Z,79.94
2023-03-02T03:51:46.906Z,80.13
2023-03-02T03:54:04.656Z,80.21
2023-03-02T03:56:21.468Z,80.24
2023-03-02T03:58:35.353Z,80.43
2023-03-02T04:00:49.909Z,80.62
2023-03-02T04:03:04.196Z,80.72
2023-03-02T04:05:18.736Z,80.77
2023-03-02T04:07:34.856Z,80.94
2023-03-02T04:09:48.407Z,80.97
2023-03-02T04:12:02.309Z,81.03
2023-03-02T04:14:15.799Z,81.08
2023-03-02T04:16:31.315Z,81.19
2023-03-02T04:18:46.255Z,81.17
2023-03-02T04:20:59.493Z,81.25
2023-03-02T04:23:13.353Z,81.36
2023-03-02T04:25:28.497Z,81.46
2023-03-02T04:28:07.584Z,81.47
2023-03-02T04:30:26.610Z,81.55
2023-03-02T04:32:39.823Z,81.62
2023-03-02T04:34:52.790Z,81.67
2023-03-02T04:37:05.773Z,81.71
2023-03-02T04:39:21.214Z,81.75
2023-03-02T04:41:36.585Z,81.76
2023-03-02T04:43:50.017Z,81.72
2023-03-02T04:46:03.838Z,81.86
2023-03-02T04:48:16.868Z,81.90
2023-03-02T04:50:30.215Z,81.84
2023-03-02T04:52:43.589Z,81.90
2023-03-02T04:54:57.715Z,81.81
2023-03-02T04:57:11.542Z,81.96
2023-03-02T04:59:26.991Z,81.81
2023-03-02T05:01:40.320Z,81.75
2023-03-02T05:03:53.364Z,81.81
2023-03-02T05:06:06.667Z,81.58
2023-03-02T05:08:19.508Z,81.57
2023-03-02T05:10:33.347Z,81.60
2023-03-02T05:12:59.168Z,81.63
2023-03-02T05:15:13.597Z,81.85
2023-03-02T05:17:26.537Z,82.18
2023-03-02T05:19:39.615Z,81.95
2023-03-02T05:21:52.479Z,81.91
2023-03-02T05:24:05.584Z,82.02
2023-03-02T05:26:20.372Z,81.85
2023-03-02T05:28:34.683Z,81.92
2023-03-02T05:30:48.609Z,81.92
2023-03-02T05:33:02.105Z,81.89
2023-03-02T05:35:15.709Z,81.98
2023-03-02T05:37:29.409Z,81.84
2023-03-02T05:39:43.034Z,82.02
2023-03-02T05:41:55.910Z,82.12
2023-03-02T05:44:11.661Z,82.13
2023-03-02T05:46:25.575Z,82.34
2023-03-02T05:48:39.127Z,82.31
2023-03-02T05:50:52.349Z,82.73
2023-03-02T05:53:05.807Z,82.72
2023-03-02T05:55:20.777Z,82.81
2023-03-02T05:57:34.004Z,82.78
2023-03-02T05:59:47.598Z,83.03
2023-03-02T06:02:01.038Z,82.82
2023-03-02T06:04:13.908Z,82.99
2023-03-02T06:06:27.362Z,83.39
2023-03-02T06:08:42.178Z,83.15
2023-03-02T06:10:58.901Z,83.30
2023-03-02T06:13:12.305Z,83.28
2023-03-02T06:15:26.015Z,83.41
2023-03-02T06:17:39.806Z,83.55
2023-03-02T06:19:52.955Z,83.72
2023-03-02T06:22:05.960Z,83.73
2023-03-02T06:24:19.533Z,83.83
2023-03-02T06:26:32.726Z,83.93
2023-03-02T06:28:52.726Z,84.03
2023-03-02T06:31:06.659Z,84.02
2023-03-02T06:33:20.497Z,83.96
2023-03-02T06:35:33.620Z,84.20
2023-03-02T06:37:46.901Z,84.22
2023-03-02T06:40:00.085Z,84.10
2023-03-02T06:42:12.986Z,84.25
2023-03-02T06:44:26.435Z,84.20
2023-03-02T06:46:39.446Z,84.33
2023-03-02T06:48:52.507Z,84.44
2023-03-02T06:51:06.897Z,84.44
2023-03-02T06:53:21.744Z,84.43
2023-03-02T06:55:34.687Z,84.53
2023-03-02T06:57:47.987Z,84.51
2023-03-02T07:00:01.456Z,84.47
2023-03-02T07:02:15.985Z,84.46
2023-03-02T07:04:29.747Z,84.18
2023-03-02T07:06:43.615Z,84.13
2023-03-02T07:08:57.671Z,84.33
2023-03-02T07:11:14.708Z,84.16
2023-03-02T07:13:27.726Z,84.17
2023-03-02T07:15:42.147Z,84.07
2023-03-02T07:17:55.107Z,83.93
2023-03-02T07:20:08.729Z,83.77
2023-03-02T07:22:22.429Z,83.85
2023-03-02T07:24:35.910Z,83.82
2023-03-02T07:26:50.056Z,83.87
2023-03-02T07:29:03.040Z,83.87
2023-03-02T07:31:17.214Z,84.17
2023-03-02T07:33:30.528Z,84.10
2023-03-02T07:35:43.529Z,83.97
2023-03-02T07:37:57.620Z,83.87
2023-03-02T07:40:13.943Z,83.61
2023-03-02T07:42:27.401Z,83.49
2023-03-02T07:44:43.082Z,83.31
2023-03-02T07:46:56.157Z,83.45
2023-03-02T07:49:09.203Z,83.29
2023-03-02T07:51:22.161Z,83.22
2023-03-02T07:53:35.334Z,82.47
2023-03-02T07:55:52.103Z,82.44
2023-03-02T07:58:05.385Z,82.49
2023-03-02T08:00:22.707Z,82.30
2023-03-02T08:02:36.462Z,82.25
2023-03-02T08:04:50.978Z,82.20
2023-03-02T08:07:04.323Z,82.13
2023-03-02T08:09:17.966Z,81.80
2023-03-02T08:11:31.509Z,81.60
2023-03-02T08:13:45.634Z,80.99
2023-03-02T08:16:06.340Z,80.84
2023-03-02T08:18:19.893Z,79.86
2023-03-02T08:20:33.294Z,79.51
2023-03-02T08:22:46.597Z,79.42
2023-03-02T08:25:00.070Z,80.02
2023-03-02T08:27:15.474Z,80.24
2023-03-02T08:29:28.629Z,79.93
2023-03-02T08:31:41.833Z,79.97
2023-03-02T08:33:54.699Z,80.12
2023-03-02T08:36:09.577Z,80.27
2023-03-02T08:38:23.051Z,80.43
2023-03-02T08:40:36.349Z,80.66
2023-03-02T08:42:51.052Z,80.58
2023-03-02T08:45:04.539Z,80.36
2023-03-02T08:47:17.907Z,80.38
2023-03-02T08:49:31.068Z,80.41
2023-03-02T08:51:44.549Z,80.30
2023-03-02T08:53:59.075Z,80.05
2023-03-02T08:56:22.088Z,80.19
2023-03-02T08:58:35.324Z,80.10
2023-03-02T09:00:49.266Z,79.77
2023-03-02T09:03:03.428Z,79.25
2023-03-02T09:05:17.195Z,79.01
2023-03-02T09:07:31.742Z,78.70
2023-03-02T09:09:44.850Z,78.20
2023-03-02T09:11:57.556Z,77.47
2023-03-02T09:14:10.567Z,77.54
2023-03-02T09:16:25.258Z,77.56
2023-03-02T09:18:38.256Z,77.99
2023-03-02T09:20:53.136Z,77.79
2023-03-02T09:23:06.901Z,77.58
2023-03-02T09:25:21.569Z,77.57
2023-03-02T09:27:34.654Z,78.12
2023-03-02T09:29:48.517Z,78.58
2023-03-02T09:32:01.564Z,78.31
2023-03-02T09:34:14.658Z,78.30
2023-03-02T09:36:29.556Z,78.79
2023-03-02T09:38:42.886Z,79.17
2023-03-02T09:41:17.149Z,79.64
2023-03-02T09:43:41.940Z,80.08
2023-03-02T09:46:05.965Z,80.08
2023-03-02T09:48:28.058Z,81.07
2023-03-02T09:50:43.927Z,81.20
2023-03-02T09:53:11.672Z,81.62
2023-03-02T09:55:27.036Z,82.55
2023-03-02T09:57:41.655Z,82.54
2023-03-02T10:00:06.631Z,82.96
2023-03-02T10:02:32.089Z,82.90
2023-03-02T10:04:48.510Z,83.65
2023-03-02T10:07:06.087Z,83.74
2023-03-02T10:09:19.377Z,84.96
2023-03-02T10:11:40.801Z,85.49
2023-03-02T10:13:58.108Z,86.23
2023-03-02T10:16:22.869Z,86.31
2023-03-02T10:18:42.526Z,86.21
2023-03-02T10:21:03.096Z,87.54
2023-03-02T10:23:38.686Z,87.77
2023-03-02T10:25:55.776Z,88.12
2023-03-02T10:28:20.636Z,88.18
2023-03-02T10:30:37.579Z,88.35
2023-03-02T10:32:56.062Z,88.28
2023-03-02T10:35:22.051Z,88.56
2023-03-02T10:37:37.159Z,89.25
2023-03-02T10:39:54.247Z,89.36
2023-03-02T10:42:11.180Z,89.51
2023-03-02T10:44:29.501Z,90.42
2023-03-02T10:46:50.285Z,90.50
2023-03-02T10:49:04.426Z,90.24
2023-03-02T10:51:29.526Z,90.67
2023-03-02T10:53:42.665Z,90.78
2023-03-02T10:55:56.702Z,90.77
2023-03-02T10:58:21.276Z,90.88
2023-03-02T11:00:36.762Z,90.69
2023-03-02T11:02:58.933Z,91.46
2023-03-02T11:05:34.169Z,92.11
2023-03-02T11:07:55.417Z,92.61
2023-03-02T11:10:20.778Z,93.16
2023-03-02T11:12:35.360Z,93.62
2023-03-02T11:14:48.496Z,93.92
2023-03-02T11:17:03.559Z,93.54
2023-03-02T11:19:21.236Z,92.93
2023-03-02T11:21:38.148Z,92.77
2023-03-02T11:24:01.315Z,93.05
2023-03-02T11:26:24.566Z,93.28
2023-03-02T11:28:50.079Z,93.65
2023-03-02T11:31:08.976Z,94.03
2023-03-02T11:33:28.182Z,94.16
2023-03-02T11:35:48.819Z,94.28
2023-03-02T11:38:07.497Z,94.72
2023-03-02T11:40:32.856Z,94.97
2023-03-02T11:42:48.947Z,94.78
2023-03-02T11:45:04.279Z,94.88
2023-03-02T11:47:18.448Z,94.69
2023-03-02T11:49:36.249Z,94.33
2023-03-02T11:51:58.990Z,94.11
2023-03-02T11:54:22.802Z,94.38
2023-03-02T11:56:38.122Z,95.43
2023-03-02T11:58:56.872Z,95.28
2023-03-02T12:01:11.028Z,95.82
2023-03-02T12:03:40.060Z,95.61
2023-03-02T12:06:07.191Z,96.58
2023-03-02T12:08:37.981Z,96.77
2023-03-02T12:11:04.617Z,96.77
2023-03-02T12:13:26.622Z,97.55
2023-03-02T12:15:46.519Z,97.37
2023-03-02T12:18:00.494Z,97.90
2023-03-02T12:20:35.250Z,97.94
2023-03-02T12:22:48.553Z,98.29
2023-03-02T12:25:10.464Z,98.07
2023-03-02T12:27:37.405Z,98.19
2023-03-02T12:29:52.742Z,98.08
2023-03-02T12:32:24.421Z,98.59
2023-03-02T12:34:46.405Z,98.42
2023-03-02T12:37:03.063Z,98.49
2023-03-02T12:39:29.567Z,98.81
2023-03-02T12:42:01.358Z,98.92
2023-03-02T12:44:29.132Z,98.94
2023-03-02T12:46:43.331Z,99.32
2023-03-02T12:49:05.333Z,99.14
2023-03-02T12:51:28.592Z,99.86
2023-03-02T12:53:42.273Z,99.62
2023-03-02T12:55:55.416Z,99.39
2023-03-02T12:58:18.990Z,99.75
2023-03-02T13:00:35.085Z,99.91
2023-03-02T13:02:52.735Z,100.00
2023-03-02T13:05:08.528Z,100.00
2023-03-02T13:07:26.312Z,99.87
2023-03-02T13:09:47.788Z,99.87
2023-03-02T13:12:08.310Z,99.95
2023-03-02T13:14:31.823Z,99.98
2023-03-02T13:16:45.105Z,100.00
2023-03-02T13:19:02.320Z,100.00
2023-03-02T13:21:21.730Z,99.94
2023-03-02T13:23:37.740Z,100.00
2023-03-02T13:25:57.818Z,100.00
2023-03-02T13:28:23.622Z,100.00
2023-03-02T13:30:42.980Z,100.00
2023-03-02T13:32:57.591Z,100.00
2023-03-02T13:35:26.141Z,100.00
2023-03-02T13:37:45.093Z,100.00
2023-03-02T13:40:06.094Z,100.00
2023-03-02T13:42:38.597Z,100.00
2023-03-02T13:44:51.798Z,100.00
2023-03-02T13:47:05.277Z,100.00
2023-03-02T13:49:28.997Z,100.00
2023-03-02T13:51:44.817Z,100.00
2023-03-02T13:54:02.361Z,100.00
2023-03-02T13:56:20.202Z,100.00
2023-03-02T13:58:34.405Z,100.00
2023-03-02T14:00:47.510Z,100.00
2023-03-02T14:03:01.065Z,100.00
2023-03-02T14:05:22.366Z,100.00
2023-03-02T14:07:35.404Z,100.00
2023-03-02T14:09:49.718Z,100.00
2023-03-02T14:12:02.812Z,100.00
2023-03-02T14:14:20.143Z,100.00
2023-03-02T14:16:35.928Z,100.00
2023-03-02T14:18:52.253Z,100.00
2023-03-02T14:21:05.338Z,100.00
2023-03-02T14:23:18.124Z,100.00
2023-03-02T14:25:31.580Z,100.00
2023-03-02T14:27:45.895Z,100.00
2023-03-02T14:29:59.559Z,100.00
2023-03-02T14:32:13.843Z,100.00
2023-03-02T14:34:26.886Z,100.00
2023-03-02T14:36:40.319Z,100.00
2023-03-02T14:38:53.364Z,100.00
2023-03-02T14:41:07.201Z,100.00
2023-03-02T14:43:22.189Z,100.00
2023-03-02T14:45:35.205Z,100.00
2023-03-02T14:47:50.080Z,100.00
2023-03-02T14:50:03.700Z,100.00
2023-03-02T14:52:24.626Z,100.00
2023-03-02T14:54:45.555Z,100.00
2023-03-02T14:56:59.896Z,100.00
2023-03-02T14:59:16.351Z,100.00
2023-03-02T15:01:30.319Z,100.00
2023-03-02T15:03:43.889Z,100.00
2023-03-02T15:06:02.080Z,100.00
2023-03-02T15:08:18.011Z,100.00
2023-03-02T15:10:30.973Z,100.00
2023-03-02T15:15:10.188Z,100.00
2023-03-02T15:17:23.433Z,100.00
2023-03-02T15:19:36.564Z,100.00
2023-03-02T15:21:49.430Z,100.00
2023-03-02T15:24:02.412Z,100.00
2023-03-02T15:26:15.967Z,100.00
2023-03-02T15:28:30.025Z,100.00
2023-03-02T15:30:42.982Z,100.00
2023-03-02T15:32:56.002Z,100.00
2023-03-02T15:35:13.308Z,100.00
2023-03-02T15:37:26.893Z,100.00
2023-03-02T15:39:39.980Z,100.00
2023-03-02T15:41:52.979Z,100.00
2023-03-02T15:44:06.025Z,100.00
2023-03-02T15:46:19.125Z,100.00
2023-03-02T15:48:32.945Z,100.00
2023-03-02T15:50:46.015Z,100.00
2023-03-02T15:52:59.655Z,100.00
2023-03-02T15:55:17.527Z,100.00
2023-03-02T15:57:30.524Z,100.00
2023-03-02T15:59:43.537Z,100.00
2023-03-02T16:02:00.298Z,100.00
2023-03-02T16:04:13.369Z,100.00
2023-03-02T16:06:28.597Z,100.00
2023-03-02T16:08:41.860Z,100.00
2023-03-02T16:11:04.594Z,100.00
2023-03-02T16:13:18.251Z,100.00
2023-03-02T16:15:31.191Z,100.00
2023-03-02T16:17:45.340Z,100.00
2023-03-02T16:19:58.429Z,100.00
2023-03-02T16:22:11.600Z,100.00
2023-03-02T16:24:25.573Z,100.00
2023-03-02T16:26:40.938Z,100.00
2023-03-02T16:28:57.812Z,100.00
2023-03-02T16:31:15.345Z,100.00
2023-03-02T16:33:28.799Z,100.00
2023-03-02T16:35:42.673Z,100.00
2023-03-02T16:37:55.930Z,100.00
2023-03-02T16:40:09.703Z,100.00
2023-03-02T16:42:22.867Z,100.00
2023-03-02T16:44:36.062Z,100.00
2023-03-02T16:46:49.902Z,100.00
2023-03-02T16:49:03.675Z,100.00
2023-03-02T16:51:17.262Z,100.00
2023-03-02T16:53:30.972Z,100.00
2023-03-02T16:55:44.258Z,100.00
2023-03-02T16:57:59.022Z,100.00
2023-03-02T17:00:15.256Z,100.00
2023-03-02T17:02:28.336Z,100.00
2023-03-02T17:04:41.843Z,100.00
2023-03-02T17:07:02.410Z,100.00
2023-03-02T17:09:15.512Z,100.00
2023-03-02T17:11:29.109Z,100.00
2023-03-02T17:13:43.415Z,100.00
2023-03-02T17:15:56.350Z,100.00
2023-03-02T17:18:09.432Z,100.00
2023-03-02T17:20:22.728Z,100.00
2023-03-02T17:22:36.053Z,100.00
2023-03-02T17:24:49.511Z,100.00
2023-03-02T17:27:04.257Z,100.00
2023-03-02T17:29:19.001Z,99.63
2023-03-02T17:31:32.616Z,99.50
2023-03-02T17:33:46.031Z,98.96
2023-03-02T17:35:59.283Z,98.47
2023-03-02T17:38:12.661Z,98.46
2023-03-02T17:40:26.249Z,97.99
2023-03-02T17:42:39.462Z,97.54
2023-03-02T17:44:56.448Z,97.53
2023-03-02T17:47:10.178Z,97.01
2023-03-02T17:49:23.159Z,96.96
2023-03-02T17:51:36.669Z,97.04
2023-03-02T17:53:51.099Z,95.91
2023-03-02T17:56:04.646Z,96.45
2023-03-02T17:58:18.113Z,95.48
2023-03-02T18:00:32.417Z,94.23
2023-03-02T18:02:46.189Z,91.78
2023-03-02T18:04:59.596Z,92.34
2023-03-02T18:07:12.599Z,92.14
2023-03-02T18:09:26.087Z,91.34
2023-03-02T18:11:39.887Z,89.94
2023-03-02T18:13:56.181Z,89.98
2023-03-02T18:16:11.502Z,90.34
2023-03-02T18:18:24.965Z,90.96
2023-03-02T18:20:38.569Z,91.60
2023-03-02T18:22:51.507Z,91.02
2023-03-02T18:25:04.432Z,90.68
2023-03-02T18:27:17.524Z,90.49
2023-03-02T18:29:30.487Z,90.29
2023-03-02T18:31:45.219Z,88.36
2023-03-02T18:34:00.059Z,88.44
2023-03-02T18:36:19.398Z,89.03
2023-03-02T18:38:54.122Z,88.80
2023-03-02T18:41:10.168Z,88.35
2023-03-02T18:43:24.355Z,88.27
2023-03-02T18:45:39.152Z,87.16
2023-03-02T18:47:52.856Z,87.69
2023-03-02T18:50:05.732Z,87.92
2023-03-02T18:52:19.577Z,87.46
2023-03-02T18:54:33.203Z,86.46
2023-03-02T18:56:47.555Z,85.66
2023-03-02T18:59:00.718Z,85.30
2023-03-02T19:01:14.152Z,84.65
2023-03-02T19:03:27.888Z,84.81
2023-03-02T19:05:41.768Z,84.62
2023-03-02T19:07:55.870Z,83.93
2023-03-02T19:10:09.638Z,84.37
2023-03-02T19:12:22.786Z,84.16
2023-03-02T19:14:36.482Z,84.29
2023-03-02T19:16:50.127Z,84.08
2023-03-02T19:19:03.672Z,84.45
2023-03-02T19:21:17.090Z,84.28
2023-03-02T19:23:30.925Z,84.00
2023-03-02T19:25:45.465Z,84.25
2023-03-02T19:27:59.603Z,84.26
2023-03-02T19:30:17.756Z,83.92
2023-03-02T19:32:30.753Z,84.51
2023-03-02T19:34:45.629Z,83.81
2023-03-02T19:36:59.085Z,82.31
2023-03-02T19:39:12.993Z,82.91
2023-03-02T19:41:27.210Z,82.25
2023-03-02T19:43:41.637Z,82.49
2023-03-02T19:45:54.727Z,81.87
2023-03-02T19:48:14.682Z,80.34
2023-03-02T19:50:28.488Z,80.78
2023-03-02T19:52:41.545Z,80.55
2023-03-02T19:54:54.747Z,79.84
2023-03-02T19:57:08.998Z,79.35
2023-03-02T19:59:22.803Z,78.99
2023-03-02T20:01:35.994Z,79.78
2023-03-02T20:03:49.753Z,80.57
2023-03-02T20:06:04.538Z,79.57
2023-03-02T20:08:18.277Z,79.69
2023-03-02T20:10:36.278Z,77.63
2023-03-02T20:12:49.271Z,76.94
2023-03-02T20:15:02.346Z,76.98
2023-03-02T20:17:16.991Z,77.87
2023-03-02T20:19:30.485Z,76.68
2023-03-02T20:21:44.350Z,76.89
2023-03-02T20:23:57.910Z,76.91
2023-03-02T20:26:11.806Z,77.44
2023-03-02T20:28:26.886Z,77.97
2023-03-02T20:30:43.032Z,77.37
2023-03-02T20:32:56.794Z,77.21
2023-03-02T20:35:10.320Z,76.06
2023-03-02T20:37:24.096Z,73.92
2023-03-02T20:39:41.927Z,73.84
2023-03-02T20:41:58.087Z,73.87
2023-03-02T20:44:14.778Z,73.74
2023-03-02T20:46:31.598Z,75.17
2023-03-02T20:48:44.970Z,75.04
2023-03-02T20:50:58.374Z,75.06
2023-03-02T20:53:12.512Z,74.15
2023-03-02T20:55:28.217Z,75.11
2023-03-02T20:57:41.494Z,74.59
2023-03-02T20:59:55.186Z,75.50
2023-03-02T21:02:08.758Z,76.01
2023-03-02T21:04:21.772Z,76.00
2023-03-02T21:06:35.948Z,75.92
2023-03-02T21:08:49.654Z,75.53
2023-03-02T21:11:03.024Z,75.23
2023-03-02T21:13:17.144Z,75.93
2023-03-02T21:15:31.261Z,75.69
2023-03-02T21:17:45.306Z,74.06
2023-03-02T21:19:58.549Z,74.76
2023-03-02T21:22:11.827Z,75.16
2023-03-02T21:24:25.086Z,74.85
2023-03-02T21:26:38.198Z,72.26
2023-03-02T21:28:51.156Z,72.82
2023-03-02T21:31:04.322Z,71.39
2023-03-02T21:33:17.827Z,71.38
2023-03-02T21:35:32.767Z,70.54
2023-03-02T21:37:46.089Z,70.02
2023-03-02T21:40:00.032Z,69.72
2023-03-02T21:42:13.775Z,70.28
2023-03-02T21:44:26.957Z,70.78
2023-03-02T21:46:42.624Z,70.16
2023-03-02T21:48:56.728Z,70.48
2023-03-02T21:51:10.399Z,70.03
2023-03-02T21:53:23.209Z,69.10
2023-03-02T21:55:37.297Z,68.59
2023-03-02T21:57:50.227Z,69.01
2023-03-02T22:00:05.588Z,68.70
2023-03-02T22:02:18.497Z,68.20
2023-03-02T22:04:31.616Z,68.16
2023-03-02T22:06:44.558Z,66.96
2023-03-02T22:08:58.797Z,66.89
2023-03-02T22:11:14.981Z,66.80
2023-03-02T22:13:30.413Z,66.68
2023-03-02T22:15:44.388Z,66.07
2023-03-02T22:17:58.020Z,67.02
2023-03-02T22:20:21.650Z,67.14
2023-03-02T22:22:35.041Z,66.27
2023-03-02T22:24:52.044Z,65.29
2023-03-02T22:27:14.630Z,65.30
2023-03-02T22:29:26.597Z,65.86
2023-03-02T22:31:44.087Z,66.65
2023-03-02T22:33:58.074Z,66.01
2023-03-02T22:36:21.392Z,65.86
2023-03-02T22:38:36.861Z,66.48
2023-03-02T22:40:49.885Z,66.94
2023-03-02T22:43:14.172Z,67.45
2023-03-02T22:45:28.462Z,66.49
2023-03-02T22:47:41.301Z,66.80
2023-03-02T22:50:02.272Z,66.40
2023-03-02T22:52:20.202Z,65.68
2023-03-02T22:54:40.256Z,66.09
2023-03-02T22:56:58.263Z,65.96
2023-03-02T22:59:20.500Z,66.46
2023-03-02T23:01:40.899Z,65.99
2023-03-02T23:03:55.096Z,66.76
2023-03-02T23:06:20.342Z,67.38
2023-03-02T23:08:34.908Z,67.45
2023-03-02T23:10:48.343Z,69.01
2023-03-02T23:13:02.074Z,70.02
2023-03-02T23:15:23.627Z,70.83
2023-03-02T23:17:41.663Z,71.77
2023-03-02T23:19:56.836Z,72.97
2023-03-02T23:22:10.258Z,72.41
2023-03-02T23:24:23.324Z,72.09
2023-03-02T23:26:36.481Z,72.07
2023-03-02T23:28:49.900Z,72.59
2023-03-02T23:31:03.411Z,73.09
2023-03-02T23:33:16.323Z,73.03
2023-03-02T23:35:29.449Z,73.17
2023-03-02T23:37:42.502Z,71.80
2023-03-02T23:39:55.811Z,71.40
2023-03-02T23:42:09.711Z,70.70
2023-03-02T23:44:22.909Z,69.79
2023-03-02T23:46:36.850Z,69.76
2023-03-02T23:48:50.619Z,69.59
2023-03-02T23:51:04.197Z,69.83
2023-03-02T23:53:17.727Z,68.53
2023-03-02T23:55:31.623Z,68.99
2023-03-02T23:57:44.676Z,68.14
2023-03-02T23:59:57.526Z,67.94
